Croydon, UT (84018)

7:00 AM MDT on August 30, 2015 (GMT -0600)
Morgan 1426 | | Change Station
CLOSE
Current Station
Personal Weather Station
Location: Morgan, UT
Elevation: 5105 ft
Nearby Weather Stations

Elev 5105 ft 41.05 °N, 111.67 °W | Updated 40 seconds ago

Partly Cloudy
Partly Cloudy
78.6 °F
Feels Like 78 °F
N
5.0
Wind Variable Wind from NW
Gusts 5.0 mph

Today
High -- | Low -- °F
--% Chance of Precip.
Yesterday
High -- | Low -- °F
Precip. -- in
6:50 AM 8:02 PM
Full, 99% visible
Pressure 29.75 in
Visibility 10.0 miles
Clouds Mostly Cloudy 12000 ft
Mostly Cloudy 16000 ft
Heat Index 78 °F
Dew Point 42 °F
Humidity 27%
Rainfall 0.00 in
Snow Depth Not available.
UV 0 out of 12
Pollen 8.90 out of 12
Air Quality Not available.
Flu Activity Not available.
METAR KHIF 301158Z AUTO 26006KT 10SM BKN120 BKN160 25/08 A2997 RMK AO2 SLP075 T02480084 10276 20244 53012
Pressure 29.75 in
Visibility 10.0 miles
Clouds Mostly Cloudy 12000 ft
Mostly Cloudy 16000 ft
Heat Index 78 °F
Dew Point 42 °F
Humidity 27%
Rainfall 0.00 in
Snow Depth Not available.
UV 0 out of 12
Pollen 8.90 out of 12
Air Quality Not available.
Flu Activity Not available.
METAR KHIF 301158Z AUTO 26006KT 10SM BKN120 BKN160 25/08 A2997 RMK AO2 SLP075 T02480084 10276 20244 53012

10-Day Weather Forecast

×

Almanac

Astronomy

Aug. 30, 2015 Rise Set
Actual Time
Civil Twilight
Nautical Twilight
Astronomical Twilight
Moon
Length of Visible Light
Length of Day
Tomorrow will be .
, % of the Moon is Illuminated

Today's Extremes

State Highs State Lows

Community

WunderPhotos

Upload Photos

1,850,945 photos uploaded!

WunderBlogs® & News

Nearby

Air Quality

  Air Quality AQ Index Pollutant
Not available.

Snow Depth

Station Depth Elevation

Earthquake Activity

City Distance Mag. Time & Date
Minimum magnitude displayed is 2.5.

Coastal Water Temperatures

Place Temperature

Stations

Nearby Weather Stations

Station Location Temp. Windchill Dew Point Humidity Wind Precip. Elev Updated Type